sensor_id;sensor_type;location;lat;lon;timestamp;P1;durP1;ratioP1;P2;durP2;ratioP2
43152;SDS011;28756;49.064;9.290;2023-08-17T00:01:43;3.58;;;1.85;;
43152;SDS011;28756;49.064;9.290;2023-08-17T00:04:09;2.38;;;1.92;;
43152;SDS011;28756;49.064;9.290;2023-08-17T00:06:35;2.33;;;1.98;;
43152;SDS011;28756;49.064;9.290;2023-08-17T00:09:00;2.30;;;1.85;;
43152;SDS011;28756;49.064;9.290;2023-08-17T00:11:26;1.90;;;1.70;;
43152;SDS011;28756;49.064;9.290;2023-08-17T00:13:52;3.10;;;2.33;;
43152;SDS011;28756;49.064;9.290;2023-08-17T00:16:18;2.83;;;2.00;;
43152;SDS011;28756;49.064;9.290;2023-08-17T00:18:43;7.20;;;2.53;;
43152;SDS011;28756;49.064;9.290;2023-08-17T00:21:09;3.80;;;2.38;;
43152;SDS011;28756;49.064;9.290;2023-08-17T00:23:35;2.97;;;2.00;;
43152;SDS011;28756;49.064;9.290;2023-08-17T00:26:00;2.30;;;1.90;;
43152;SDS011;28756;49.064;9.290;2023-08-17T00:28:26;2.53;;;1.95;;
43152;SDS011;28756;49.064;9.290;2023-08-17T00:30:52;2.60;;;2.15;;
43152;SDS011;28756;49.064;9.290;2023-08-17T00:33:18;2.58;;;2.00;;
43152;SDS011;28756;49.064;9.290;2023-08-17T00:35:43;2.75;;;1.90;;
43152;SDS011;28756;49.064;9.290;2023-08-17T00:38:10;2.42;;;1.80;;
43152;SDS011;28756;49.064;9.290;2023-08-17T00:40:37;3.13;;;1.92;;
43152;SDS011;28756;49.064;9.290;2023-08-17T00:43:03;3.13;;;1.85;;
43152;SDS011;28756;49.064;9.290;2023-08-17T00:45:30;3.67;;;2.20;;
43152;SDS011;28756;49.064;9.290;2023-08-17T00:47:57;3.90;;;2.30;;
43152;SDS011;28756;49.064;9.290;2023-08-17T00:50:23;2.55;;;2.03;;
43152;SDS011;28756;49.064;9.290;2023-08-17T00:52:51;3.75;;;1.70;;
43152;SDS011;28756;49.064;9.290;2023-08-17T00:55:18;4.38;;;1.90;;
43152;SDS011;28756;49.064;9.290;2023-08-17T00:57:44;2.42;;;1.80;;
43152;SDS011;28756;49.064;9.290;2023-08-17T01:00:11;1.98;;;1.80;;
43152;SDS011;28756;49.064;9.290;2023-08-17T01:02:38;2.10;;;1.90;;
43152;SDS011;28756;49.064;9.290;2023-08-17T01:05:06;2.42;;;2.10;;
43152;SDS011;28756;49.064;9.290;2023-08-17T01:07:32;2.58;;;2.00;;
43152;SDS011;28756;49.064;9.290;2023-08-17T01:09:58;2.03;;;1.85;;
43152;SDS011;28756;49.064;9.290;2023-08-17T01:12:31;3.35;;;2.00;;
43152;SDS011;28756;49.064;9.290;2023-08-17T01:15:32;3.10;;;2.17;;
43152;SDS011;28756;49.064;9.290;2023-08-17T01:20:49;4.55;;;2.60;;
43152;SDS011;28756;49.064;9.290;2023-08-17T01:23:17;5.35;;;2.53;;
43152;SDS011;28756;49.064;9.290;2023-08-17T01:25:43;2.97;;;2.63;;
43152;SDS011;28756;49.064;9.290;2023-08-17T01:28:09;2.85;;;2.50;;
43152;SDS011;28756;49.064;9.290;2023-08-17T01:30:46;2.88;;;2.10;;
43152;SDS011;28756;49.064;9.290;2023-08-17T01:33:56;3.08;;;2.38;;
43152;SDS011;28756;49.064;9.290;2023-08-17T01:36:30;3.03;;;2.50;;
43152;SDS011;28756;49.064;9.290;2023-08-17T01:39:08;2.35;;;2.15;;
43152;SDS011;28756;49.064;9.290;2023-08-17T01:41:36;4.38;;;2.40;;
43152;SDS011;28756;49.064;9.290;2023-08-17T01:44:04;5.20;;;2.60;;
43152;SDS011;28756;49.064;9.290;2023-08-17T01:46:31;4.18;;;2.75;;
43152;SDS011;28756;49.064;9.290;2023-08-17T01:48:58;4.68;;;2.70;;
43152;SDS011;28756;49.064;9.290;2023-08-17T01:51:24;3.03;;;2.72;;
43152;SDS011;28756;49.064;9.290;2023-08-17T01:53:50;2.60;;;2.40;;
43152;SDS011;28756;49.064;9.290;2023-08-17T01:56:17;2.83;;;2.55;;
43152;SDS011;28756;49.064;9.290;2023-08-17T01:58:42;3.20;;;2.78;;
43152;SDS011;28756;49.064;9.290;2023-08-17T02:01:08;4.22;;;2.50;;
43152;SDS011;28756;49.064;9.290;2023-08-17T02:03:34;3.08;;;2.53;;
43152;SDS011;28756;49.064;9.290;2023-08-17T02:06:00;2.88;;;2.65;;
43152;SDS011;28756;49.064;9.290;2023-08-17T02:08:26;8.65;;;3.45;;
43152;SDS011;28756;49.064;9.290;2023-08-17T02:10:52;5.88;;;2.67;;
43152;SDS011;28756;49.064;9.290;2023-08-17T02:13:18;2.53;;;2.13;;
43152;SDS011;28756;49.064;9.290;2023-08-17T02:15:44;2.50;;;2.30;;
43152;SDS011;28756;49.064;9.290;2023-08-17T02:18:11;3.55;;;2.42;;
43152;SDS011;28756;49.064;9.290;2023-08-17T02:20:37;2.53;;;2.33;;
43152;SDS011;28756;49.064;9.290;2023-08-17T02:23:03;2.50;;;2.30;;
43152;SDS011;28756;49.064;9.290;2023-08-17T02:25:29;3.95;;;2.33;;
43152;SDS011;28756;49.064;9.290;2023-08-17T02:28:00;2.70;;;2.40;;
43152;SDS011;28756;49.064;9.290;2023-08-17T02:30:28;4.10;;;2.83;;
43152;SDS011;28756;49.064;9.290;2023-08-17T02:32:54;4.35;;;2.33;;
43152;SDS011;28756;49.064;9.290;2023-08-17T02:35:20;2.38;;;2.17;;
43152;SDS011;28756;49.064;9.290;2023-08-17T02:37:46;3.92;;;2.33;;
43152;SDS011;28756;49.064;9.290;2023-08-17T02:40:11;2.55;;;1.98;;
43152;SDS011;28756;49.064;9.290;2023-08-17T02:42:37;3.03;;;2.50;;
43152;SDS011;28756;49.064;9.290;2023-08-17T02:45:05;3.05;;;2.47;;
43152;SDS011;28756;49.064;9.290;2023-08-17T02:47:34;4.20;;;2.90;;
43152;SDS011;28756;49.064;9.290;2023-08-17T02:50:00;4.35;;;3.80;;
43152;SDS011;28756;49.064;9.290;2023-08-17T02:52:25;4.75;;;4.13;;
43152;SDS011;28756;49.064;9.290;2023-08-17T02:54:51;4.75;;;3.58;;
43152;SDS011;28756;49.064;9.290;2023-08-17T02:57:17;4.80;;;3.95;;
43152;SDS011;28756;49.064;9.290;2023-08-17T02:59:43;4.75;;;3.72;;
43152;SDS011;28756;49.064;9.290;2023-08-17T03:02:09;4.63;;;4.10;;
43152;SDS011;28756;49.064;9.290;2023-08-17T03:04:35;3.83;;;3.30;;
43152;SDS011;28756;49.064;9.290;2023-08-17T03:07:00;3.88;;;3.33;;
43152;SDS011;28756;49.064;9.290;2023-08-17T03:09:26;4.07;;;3.42;;
43152;SDS011;28756;49.064;9.290;2023-08-17T03:11:52;3.22;;;2.92;;
43152;SDS011;28756;49.064;9.290;2023-08-17T03:14:18;4.20;;;3.80;;
43152;SDS011;28756;49.064;9.290;2023-08-17T03:16:43;4.55;;;3.85;;
43152;SDS011;28756;49.064;9.290;2023-08-17T03:19:09;4.35;;;3.70;;
43152;SDS011;28756;49.064;9.290;2023-08-17T03:21:36;5.72;;;3.97;;
43152;SDS011;28756;49.064;9.290;2023-08-17T03:24:02;4.18;;;3.78;;
43152;SDS011;28756;49.064;9.290;2023-08-17T03:26:29;4.43;;;3.80;;
43152;SDS011;28756;49.064;9.290;2023-08-17T03:28:55;4.45;;;3.97;;
43152;SDS011;28756;49.064;9.290;2023-08-17T03:31:20;6.13;;;4.38;;
43152;SDS011;28756;49.064;9.290;2023-08-17T03:33:47;6.93;;;4.25;;
43152;SDS011;28756;49.064;9.290;2023-08-17T03:36:13;5.50;;;4.35;;
43152;SDS011;28756;49.064;9.290;2023-08-17T03:38:39;6.85;;;4.43;;
43152;SDS011;28756;49.064;9.290;2023-08-17T03:41:05;5.70;;;4.88;;
43152;SDS011;28756;49.064;9.290;2023-08-17T03:43:31;5.97;;;4.95;;
43152;SDS011;28756;49.064;9.290;2023-08-17T03:45:57;6.85;;;4.90;;
43152;SDS011;28756;49.064;9.290;2023-08-17T03:48:23;7.75;;;5.95;;
43152;SDS011;28756;49.064;9.290;2023-08-17T03:50:52;4.65;;;4.15;;
43152;SDS011;28756;49.064;9.290;2023-08-17T03:53:19;5.88;;;4.50;;
43152;SDS011;28756;49.064;9.290;2023-08-17T03:55:46;7.13;;;5.25;;
43152;SDS011;28756;49.064;9.290;2023-08-17T03:58:18;5.38;;;4.70;;
43152;SDS011;28756;49.064;9.290;2023-08-17T04:00:50;4.88;;;4.05;;
43152;SDS011;28756;49.064;9.290;2023-08-17T04:03:17;5.25;;;3.97;;
43152;SDS011;28756;49.064;9.290;2023-08-17T04:05:44;4.63;;;4.10;;
43152;SDS011;28756;49.064;9.290;2023-08-17T04:08:09;4.75;;;4.25;;
43152;SDS011;28756;49.064;9.290;2023-08-17T04:10:35;5.82;;;4.97;;
43152;SDS011;28756;49.064;9.290;2023-08-17T04:13:01;7.25;;;5.18;;
43152;SDS011;28756;49.064;9.290;2023-08-17T04:15:27;7.13;;;5.78;;
43152;SDS011;28756;49.064;9.290;2023-08-17T04:17:52;8.82;;;4.80;;
43152;SDS011;28756;49.064;9.290;2023-08-17T04:20:18;6.53;;;4.63;;
43152;SDS011;28756;49.064;9.290;2023-08-17T04:22:44;4.85;;;4.18;;
43152;SDS011;28756;49.064;9.290;2023-08-17T04:25:10;5.88;;;5.25;;
43152;SDS011;28756;49.064;9.290;2023-08-17T04:27:36;7.63;;;5.65;;
43152;SDS011;28756;49.064;9.290;2023-08-17T04:30:01;9.63;;;6.40;;
43152;SDS011;28756;49.064;9.290;2023-08-17T04:32:28;9.25;;;5.43;;
43152;SDS011;28756;49.064;9.290;2023-08-17T04:34:53;7.60;;;5.85;;
43152;SDS011;28756;49.064;9.290;2023-08-17T04:37:19;7.72;;;6.25;;
43152;SDS011;28756;49.064;9.290;2023-08-17T04:39:45;8.05;;;5.72;;
43152;SDS011;28756;49.064;9.290;2023-08-17T04:42:13;7.18;;;5.63;;
43152;SDS011;28756;49.064;9.290;2023-08-17T04:44:39;9.30;;;6.22;;
43152;SDS011;28756;49.064;9.290;2023-08-17T04:47:05;6.00;;;5.40;;
43152;SDS011;28756;49.064;9.290;2023-08-17T04:49:30;5.60;;;4.28;;
43152;SDS011;28756;49.064;9.290;2023-08-17T04:51:56;3.83;;;3.40;;
43152;SDS011;28756;49.064;9.290;2023-08-17T04:54:22;3.28;;;2.97;;
43152;SDS011;28756;49.064;9.290;2023-08-17T04:56:48;3.90;;;3.13;;
43152;SDS011;28756;49.064;9.290;2023-08-17T04:59:13;3.28;;;2.97;;
43152;SDS011;28756;49.064;9.290;2023-08-17T05:01:39;4.00;;;3.30;;
43152;SDS011;28756;49.064;9.290;2023-08-17T05:04:05;3.67;;;2.50;;
43152;SDS011;28756;49.064;9.290;2023-08-17T05:06:31;3.60;;;2.78;;
43152;SDS011;28756;49.064;9.290;2023-08-17T05:08:57;5.20;;;3.63;;
43152;SDS011;28756;49.064;9.290;2023-08-17T05:11:23;4.00;;;3.60;;
43152;SDS011;28756;49.064;9.290;2023-08-17T05:13:48;4.25;;;3.40;;
43152;SDS011;28756;49.064;9.290;2023-08-17T05:16:14;6.45;;;5.28;;
43152;SDS011;28756;49.064;9.290;2023-08-17T05:18:40;5.78;;;5.05;;
43152;SDS011;28756;49.064;9.290;2023-08-17T05:21:06;8.88;;;7.28;;
43152;SDS011;28756;49.064;9.290;2023-08-17T05:23:32;7.38;;;6.63;;
43152;SDS011;28756;49.064;9.290;2023-08-17T05:25:57;9.23;;;7.07;;
43152;SDS011;28756;49.064;9.290;2023-08-17T05:28:23;6.97;;;5.43;;
43152;SDS011;28756;49.064;9.290;2023-08-17T05:30:49;5.53;;;4.80;;
43152;SDS011;28756;49.064;9.290;2023-08-17T05:33:15;4.75;;;4.35;;
43152;SDS011;28756;49.064;9.290;2023-08-17T05:35:41;4.88;;;3.88;;
43152;SDS011;28756;49.064;9.290;2023-08-17T05:38:07;4.40;;;3.85;;
43152;SDS011;28756;49.064;9.290;2023-08-17T05:40:34;7.82;;;6.38;;
43152;SDS011;28756;49.064;9.290;2023-08-17T05:43:00;6.45;;;5.80;;
43152;SDS011;28756;49.064;9.290;2023-08-17T05:45:27;5.05;;;4.20;;
43152;SDS011;28756;49.064;9.290;2023-08-17T05:47:52;5.03;;;4.20;;
43152;SDS011;28756;49.064;9.290;2023-08-17T05:50:18;6.45;;;5.30;;
43152;SDS011;28756;49.064;9.290;2023-08-17T05:52:44;9.93;;;5.72;;
43152;SDS011;28756;49.064;9.290;2023-08-17T05:55:10;6.72;;;5.40;;
43152;SDS011;28756;49.064;9.290;2023-08-17T05:57:36;8.68;;;5.28;;
43152;SDS011;28756;49.064;9.290;2023-08-17T06:00:01;9.13;;;6.07;;
43152;SDS011;28756;49.064;9.290;2023-08-17T06:02:28;5.85;;;5.25;;
43152;SDS011;28756;49.064;9.290;2023-08-17T06:04:53;6.00;;;5.30;;
43152;SDS011;28756;49.064;9.290;2023-08-17T06:07:19;6.47;;;4.93;;
43152;SDS011;28756;49.064;9.290;2023-08-17T06:09:45;6.43;;;5.15;;
43152;SDS011;28756;49.064;9.290;2023-08-17T06:12:10;6.50;;;5.22;;
43152;SDS011;28756;49.064;9.290;2023-08-17T06:14:36;7.07;;;6.32;;
43152;SDS011;28756;49.064;9.290;2023-08-17T06:17:02;6.72;;;5.90;;
43152;SDS011;28756;49.064;9.290;2023-08-17T06:19:28;7.13;;;5.63;;
43152;SDS011;28756;49.064;9.290;2023-08-17T06:21:54;8.52;;;6.68;;
43152;SDS011;28756;49.064;9.290;2023-08-17T06:24:19;9.00;;;6.78;;
43152;SDS011;28756;49.064;9.290;2023-08-17T06:26:45;8.30;;;6.43;;
43152;SDS011;28756;49.064;9.290;2023-08-17T06:29:11;6.75;;;6.05;;
43152;SDS011;28756;49.064;9.290;2023-08-17T06:31:37;6.43;;;5.82;;
43152;SDS011;28756;49.064;9.290;2023-08-17T06:34:02;8.07;;;6.40;;
43152;SDS011;28756;49.064;9.290;2023-08-17T06:36:32;6.78;;;5.80;;
43152;SDS011;28756;49.064;9.290;2023-08-17T06:38:58;7.78;;;6.90;;
43152;SDS011;28756;49.064;9.290;2023-08-17T06:41:24;8.40;;;7.53;;
43152;SDS011;28756;49.064;9.290;2023-08-17T06:43:50;9.32;;;7.85;;
43152;SDS011;28756;49.064;9.290;2023-08-17T06:46:16;8.70;;;7.13;;
43152;SDS011;28756;49.064;9.290;2023-08-17T06:48:42;8.23;;;5.93;;
43152;SDS011;28756;49.064;9.290;2023-08-17T06:51:08;7.60;;;6.80;;
43152;SDS011;28756;49.064;9.290;2023-08-17T06:53:34;7.97;;;6.50;;
43152;SDS011;28756;49.064;9.290;2023-08-17T06:56:00;10.05;;;8.18;;
43152;SDS011;28756;49.064;9.290;2023-08-17T06:58:26;9.38;;;7.00;;
43152;SDS011;28756;49.064;9.290;2023-08-17T07:00:51;9.23;;;7.10;;
43152;SDS011;28756;49.064;9.290;2023-08-17T07:03:17;10.63;;;6.75;;
43152;SDS011;28756;49.064;9.290;2023-08-17T07:05:43;8.40;;;7.50;;
43152;SDS011;28756;49.064;9.290;2023-08-17T07:08:09;8.48;;;7.38;;
43152;SDS011;28756;49.064;9.290;2023-08-17T07:10:35;7.50;;;5.72;;
43152;SDS011;28756;49.064;9.290;2023-08-17T07:13:01;9.07;;;6.97;;
43152;SDS011;28756;49.064;9.290;2023-08-17T07:15:28;7.55;;;6.72;;
43152;SDS011;28756;49.064;9.290;2023-08-17T07:17:55;10.70;;;7.80;;
43152;SDS011;28756;49.064;9.290;2023-08-17T07:20:21;8.23;;;7.38;;
43152;SDS011;28756;49.064;9.290;2023-08-17T07:22:47;9.27;;;6.97;;
43152;SDS011;28756;49.064;9.290;2023-08-17T07:25:12;8.95;;;7.50;;
43152;SDS011;28756;49.064;9.290;2023-08-17T07:27:38;6.75;;;6.05;;
43152;SDS011;28756;49.064;9.290;2023-08-17T07:30:04;7.55;;;6.38;;
43152;SDS011;28756;49.064;9.290;2023-08-17T07:32:33;8.32;;;6.47;;
43152;SDS011;28756;49.064;9.290;2023-08-17T07:34:59;7.43;;;6.30;;
43152;SDS011;28756;49.064;9.290;2023-08-17T07:37:25;7.28;;;6.20;;
43152;SDS011;28756;49.064;9.290;2023-08-17T07:39:57;6.78;;;6.07;;
43152;SDS011;28756;49.064;9.290;2023-08-17T07:42:23;6.28;;;5.68;;
43152;SDS011;28756;49.064;9.290;2023-08-17T07:44:49;8.10;;;6.72;;
43152;SDS011;28756;49.064;9.290;2023-08-17T07:47:15;6.95;;;6.20;;
43152;SDS011;28756;49.064;9.290;2023-08-17T07:49:41;7.53;;;6.75;;
43152;SDS011;28756;49.064;9.290;2023-08-17T07:52:06;8.30;;;7.03;;
43152;SDS011;28756;49.064;9.290;2023-08-17T07:54:32;9.23;;;7.28;;
43152;SDS011;28756;49.064;9.290;2023-08-17T07:56:58;9.18;;;7.90;;
43152;SDS011;28756;49.064;9.290;2023-08-17T07:59:24;7.88;;;7.07;;
43152;SDS011;28756;49.064;9.290;2023-08-17T08:01:50;12.32;;;8.48;;
43152;SDS011;28756;49.064;9.290;2023-08-17T08:04:16;10.63;;;8.05;;
43152;SDS011;28756;49.064;9.290;2023-08-17T08:06:41;9.25;;;8.23;;
43152;SDS011;28756;49.064;9.290;2023-08-17T08:09:07;9.48;;;8.48;;
43152;SDS011;28756;49.064;9.290;2023-08-17T08:11:33;9.18;;;7.70;;
43152;SDS011;28756;49.064;9.290;2023-08-17T08:13:59;8.52;;;7.72;;
43152;SDS011;28756;49.064;9.290;2023-08-17T08:16:26;7.00;;;6.30;;
43152;SDS011;28756;49.064;9.290;2023-08-17T08:18:52;9.15;;;8.20;;
43152;SDS011;28756;49.064;9.290;2023-08-17T08:21:18;8.48;;;6.95;;
43152;SDS011;28756;49.064;9.290;2023-08-17T08:23:44;7.38;;;6.60;;
43152;SDS011;28756;49.064;9.290;2023-08-17T08:26:09;7.30;;;6.20;;
43152;SDS011;28756;49.064;9.290;2023-08-17T08:28:35;7.43;;;6.43;;
43152;SDS011;28756;49.064;9.290;2023-08-17T08:31:01;7.28;;;6.57;;
43152;SDS011;28756;49.064;9.290;2023-08-17T08:33:28;8.63;;;7.47;;
43152;SDS011;28756;49.064;9.290;2023-08-17T08:35:54;7.70;;;6.72;;
43152;SDS011;28756;49.064;9.290;2023-08-17T08:38:20;7.65;;;5.90;;
43152;SDS011;28756;49.064;9.290;2023-08-17T08:40:46;7.50;;;6.70;;
43152;SDS011;28756;49.064;9.290;2023-08-17T08:43:13;7.00;;;6.30;;
43152;SDS011;28756;49.064;9.290;2023-08-17T08:45:41;8.93;;;7.45;;
43152;SDS011;28756;49.064;9.290;2023-08-17T08:48:09;6.78;;;6.13;;
43152;SDS011;28756;49.064;9.290;2023-08-17T08:50:36;7.45;;;6.70;;
43152;SDS011;28756;49.064;9.290;2023-08-17T08:53:15;7.72;;;6.95;;
43152;SDS011;28756;49.064;9.290;2023-08-17T08:55:56;8.23;;;7.28;;
43152;SDS011;28756;49.064;9.290;2023-08-17T08:58:25;6.95;;;6.10;;
43152;SDS011;28756;49.064;9.290;2023-08-17T09:00:51;7.80;;;7.00;;
43152;SDS011;28756;49.064;9.290;2023-08-17T09:03:18;8.02;;;7.20;;
43152;SDS011;28756;49.064;9.290;2023-08-17T09:05:48;8.38;;;6.78;;
43152;SDS011;28756;49.064;9.290;2023-08-17T09:08:20;8.32;;;6.90;;
43152;SDS011;28756;49.064;9.290;2023-08-17T09:10:48;9.10;;;6.90;;
43152;SDS011;28756;49.064;9.290;2023-08-17T09:13:14;8.27;;;6.15;;
43152;SDS011;28756;49.064;9.290;2023-08-17T09:15:41;6.90;;;6.30;;
43152;SDS011;28756;49.064;9.290;2023-08-17T09:18:07;6.72;;;6.03;;
43152;SDS011;28756;49.064;9.290;2023-08-17T09:20:36;7.45;;;6.05;;
43152;SDS011;28756;49.064;9.290;2023-08-17T09:23:10;7.05;;;6.00;;
43152;SDS011;28756;49.064;9.290;2023-08-17T09:25:38;6.63;;;6.03;;
43152;SDS011;28756;49.064;9.290;2023-08-17T09:28:10;7.05;;;6.35;;
43152;SDS011;28756;49.064;9.290;2023-08-17T09:30:49;6.05;;;5.30;;
43152;SDS011;28756;49.064;9.290;2023-08-17T09:33:25;5.40;;;4.90;;
43152;SDS011;28756;49.064;9.290;2023-08-17T09:35:55;7.63;;;5.40;;
43152;SDS011;28756;49.064;9.290;2023-08-17T09:38:22;8.57;;;5.60;;
43152;SDS011;28756;49.064;9.290;2023-08-17T09:40:48;5.80;;;4.95;;
43152;SDS011;28756;49.064;9.290;2023-08-17T09:43:15;7.50;;;6.07;;
43152;SDS011;28756;49.064;9.290;2023-08-17T09:45:45;6.10;;;5.50;;
43152;SDS011;28756;49.064;9.290;2023-08-17T09:48:15;5.20;;;4.70;;
43152;SDS011;28756;49.064;9.290;2023-08-17T09:50:42;5.57;;;4.88;;
43152;SDS011;28756;49.064;9.290;2023-08-17T09:53:13;5.85;;;5.25;;
43152;SDS011;28756;49.064;9.290;2023-08-17T09:55:43;7.25;;;4.95;;
43152;SDS011;28756;49.064;9.290;2023-08-17T09:58:12;5.28;;;4.78;;
43152;SDS011;28756;49.064;9.290;2023-08-17T10:00:51;5.60;;;5.10;;
43152;SDS011;28756;49.064;9.290;2023-08-17T10:03:18;6.22;;;5.68;;
43152;SDS011;28756;49.064;9.290;2023-08-17T10:05:45;5.82;;;5.32;;
43152;SDS011;28756;49.064;9.290;2023-08-17T10:08:18;5.20;;;4.70;;
43152;SDS011;28756;49.064;9.290;2023-08-17T10:10:46;4.85;;;4.43;;
43152;SDS011;28756;49.064;9.290;2023-08-17T10:13:16;6.97;;;4.93;;
43152;SDS011;28756;49.064;9.290;2023-08-17T10:16:08;5.38;;;4.88;;
43152;SDS011;28756;49.064;9.290;2023-08-17T10:19:10;5.40;;;4.90;;
43152;SDS011;28756;49.064;9.290;2023-08-17T10:22:11;5.47;;;4.90;;
43152;SDS011;28756;49.064;9.290;2023-08-17T10:24:42;4.78;;;3.97;;
43152;SDS011;28756;49.064;9.290;2023-08-17T10:27:09;5.68;;;4.47;;
43152;SDS011;28756;49.064;9.290;2023-08-17T10:29:36;5.25;;;4.57;;
43152;SDS011;28756;49.064;9.290;2023-08-17T10:32:03;5.03;;;4.40;;
43152;SDS011;28756;49.064;9.290;2023-08-17T10:34:32;6.65;;;4.97;;
43152;SDS011;28756;49.064;9.290;2023-08-17T10:37:00;4.95;;;4.45;;
43152;SDS011;28756;49.064;9.290;2023-08-17T10:39:27;6.50;;;4.70;;
43152;SDS011;28756;49.064;9.290;2023-08-17T10:41:54;5.15;;;4.65;;
43152;SDS011;28756;49.064;9.290;2023-08-17T10:49:59;4.25;;;3.90;;
43152;SDS011;28756;49.064;9.290;2023-08-17T10:52:34;5.20;;;4.57;;
43152;SDS011;28756;49.064;9.290;2023-08-17T10:55:03;8.95;;;5.30;;
43152;SDS011;28756;49.064;9.290;2023-08-17T10:57:35;6.97;;;5.03;;
43152;SDS011;28756;49.064;9.290;2023-08-17T11:00:19;5.07;;;4.35;;
43152;SDS011;28756;49.064;9.290;2023-08-17T11:02:52;4.07;;;3.78;;
43152;SDS011;28756;49.064;9.290;2023-08-17T11:05:35;4.30;;;3.83;;
43152;SDS011;28756;49.064;9.290;2023-08-17T11:13:30;5.03;;;4.53;;
43152;SDS011;28756;49.064;9.290;2023-08-17T11:15:59;4.53;;;4.13;;
43152;SDS011;28756;49.064;9.290;2023-08-17T11:18:27;5.55;;;4.47;;
43152;SDS011;28756;49.064;9.290;2023-08-17T11:20:53;5.20;;;4.63;;
43152;SDS011;28756;49.064;9.290;2023-08-17T11:23:20;5.30;;;4.25;;
43152;SDS011;28756;49.064;9.290;2023-08-17T11:25:47;5.57;;;4.85;;
43152;SDS011;28756;49.064;9.290;2023-08-17T11:28:13;5.22;;;4.72;;
43152;SDS011;28756;49.064;9.290;2023-08-17T11:30:39;4.80;;;4.40;;
43152;SDS011;28756;49.064;9.290;2023-08-17T11:33:06;4.28;;;3.88;;
43152;SDS011;28756;49.064;9.290;2023-08-17T11:35:32;4.60;;;4.20;;
43152;SDS011;28756;49.064;9.290;2023-08-17T11:37:58;4.72;;;4.30;;
43152;SDS011;28756;49.064;9.290;2023-08-17T11:40:24;5.03;;;4.25;;
43152;SDS011;28756;49.064;9.290;2023-08-17T11:42:51;4.75;;;4.35;;
43152;SDS011;28756;49.064;9.290;2023-08-17T11:45:17;6.05;;;4.40;;
43152;SDS011;28756;49.064;9.290;2023-08-17T11:47:43;4.90;;;4.40;;
43152;SDS011;28756;49.064;9.290;2023-08-17T11:50:10;4.18;;;3.88;;
43152;SDS011;28756;49.064;9.290;2023-08-17T11:52:37;4.57;;;4.18;;
43152;SDS011;28756;49.064;9.290;2023-08-17T11:55:04;4.70;;;4.30;;
43152;SDS011;28756;49.064;9.290;2023-08-17T11:57:32;5.00;;;4.50;;
43152;SDS011;28756;49.064;9.290;2023-08-17T11:59:58;5.32;;;4.82;;
43152;SDS011;28756;49.064;9.290;2023-08-17T12:02:28;5.47;;;4.15;;
43152;SDS011;28756;49.064;9.290;2023-08-17T12:04:55;6.13;;;4.53;;
43152;SDS011;28756;49.064;9.290;2023-08-17T12:07:25;5.05;;;4.53;;
43152;SDS011;28756;49.064;9.290;2023-08-17T12:09:51;5.78;;;4.75;;
43152;SDS011;28756;49.064;9.290;2023-08-17T12:12:18;4.65;;;4.22;;
43152;SDS011;28756;49.064;9.290;2023-08-17T12:14:47;5.18;;;4.68;;
43152;SDS011;28756;49.064;9.290;2023-08-17T12:17:17;5.38;;;4.88;;
43152;SDS011;28756;49.064;9.290;2023-08-17T12:19:48;5.40;;;3.80;;
43152;SDS011;28756;49.064;9.290;2023-08-17T12:22:16;4.97;;;4.47;;
43152;SDS011;28756;49.064;9.290;2023-08-17T12:24:42;5.57;;;4.93;;
43152;SDS011;28756;49.064;9.290;2023-08-17T12:27:08;5.88;;;5.10;;
43152;SDS011;28756;49.064;9.290;2023-08-17T12:29:45;7.57;;;5.00;;
43152;SDS011;28756;49.064;9.290;2023-08-17T12:32:13;10.88;;;9.88;;
43152;SDS011;28756;49.064;9.290;2023-08-17T12:34:43;7.70;;;7.00;;
43152;SDS011;28756;49.064;9.290;2023-08-17T12:37:09;6.78;;;5.95;;
43152;SDS011;28756;49.064;9.290;2023-08-17T12:39:36;6.53;;;5.55;;
43152;SDS011;28756;49.064;9.290;2023-08-17T12:42:02;4.53;;;4.13;;
43152;SDS011;28756;49.064;9.290;2023-08-17T12:44:29;5.15;;;4.65;;
43152;SDS011;28756;49.064;9.290;2023-08-17T12:46:55;6.72;;;5.63;;
43152;SDS011;28756;49.064;9.290;2023-08-17T12:49:21;5.28;;;4.78;;
43152;SDS011;28756;49.064;9.290;2023-08-17T12:51:48;5.63;;;5.00;;
43152;SDS011;28756;49.064;9.290;2023-08-17T12:54:15;5.32;;;4.68;;
43152;SDS011;28756;49.064;9.290;2023-08-17T12:56:40;5.75;;;4.43;;
43152;SDS011;28756;49.064;9.290;2023-08-17T12:59:06;5.38;;;4.63;;
43152;SDS011;28756;49.064;9.290;2023-08-17T13:01:32;6.00;;;5.47;;
43152;SDS011;28756;49.064;9.290;2023-08-17T13:03:58;7.15;;;5.25;;
43152;SDS011;28756;49.064;9.290;2023-08-17T13:06:24;6.32;;;5.45;;
43152;SDS011;28756;49.064;9.290;2023-08-17T13:08:50;5.50;;;5.00;;
43152;SDS011;28756;49.064;9.290;2023-08-17T13:11:15;11.98;;;10.88;;
43152;SDS011;28756;49.064;9.290;2023-08-17T13:13:41;10.00;;;9.15;;
43152;SDS011;28756;49.064;9.290;2023-08-17T13:16:07;7.22;;;6.53;;
43152;SDS011;28756;49.064;9.290;2023-08-17T13:18:33;10.18;;;5.70;;
43152;SDS011;28756;49.064;9.290;2023-08-17T13:20:59;7.68;;;6.88;;
43152;SDS011;28756;49.064;9.290;2023-08-17T13:23:24;11.55;;;8.13;;
43152;SDS011;28756;49.064;9.290;2023-08-17T13:25:50;6.95;;;5.40;;
43152;SDS011;28756;49.064;9.290;2023-08-17T13:28:16;8.30;;;7.32;;
43152;SDS011;28756;49.064;9.290;2023-08-17T13:30:42;9.25;;;6.00;;
43152;SDS011;28756;49.064;9.290;2023-08-17T13:33:07;9.13;;;7.40;;
43152;SDS011;28756;49.064;9.290;2023-08-17T13:35:34;16.25;;;14.48;;
43152;SDS011;28756;49.064;9.290;2023-08-17T13:37:59;12.32;;;10.02;;
43152;SDS011;28756;49.064;9.290;2023-08-17T13:40:28;14.23;;;12.07;;
43152;SDS011;28756;49.064;9.290;2023-08-17T13:42:55;16.65;;;14.80;;
43152;SDS011;28756;49.064;9.290;2023-08-17T13:45:21;13.20;;;10.68;;
43152;SDS011;28756;49.064;9.290;2023-08-17T13:47:46;15.85;;;14.20;;
43152;SDS011;28756;49.064;9.290;2023-08-17T13:50:13;18.10;;;16.20;;
43152;SDS011;28756;49.064;9.290;2023-08-17T13:52:38;22.10;;;19.65;;
43152;SDS011;28756;49.064;9.290;2023-08-17T13:55:04;33.08;;;29.10;;
43152;SDS011;28756;49.064;9.290;2023-08-17T13:57:30;13.50;;;12.10;;
43152;SDS011;28756;49.064;9.290;2023-08-17T13:59:56;13.40;;;11.95;;
43152;SDS011;28756;49.064;9.290;2023-08-17T14:02:22;13.38;;;12.00;;
43152;SDS011;28756;49.064;9.290;2023-08-17T14:04:48;11.93;;;10.73;;
43152;SDS011;28756;49.064;9.290;2023-08-17T14:07:13;12.93;;;9.88;;
43152;SDS011;28756;49.064;9.290;2023-08-17T14:09:39;17.80;;;15.63;;
43152;SDS011;28756;49.064;9.290;2023-08-17T14:12:05;11.82;;;10.55;;
43152;SDS011;28756;49.064;9.290;2023-08-17T14:14:31;13.73;;;11.65;;
43152;SDS011;28756;49.064;9.290;2023-08-17T14:16:58;35.85;;;31.98;;
43152;SDS011;28756;49.064;9.290;2023-08-17T14:19:24;18.55;;;16.65;;
43152;SDS011;28756;49.064;9.290;2023-08-17T14:21:50;12.50;;;11.27;;
43152;SDS011;28756;49.064;9.290;2023-08-17T14:24:16;14.43;;;13.02;;
43152;SDS011;28756;49.064;9.290;2023-08-17T14:26:42;8.30;;;7.50;;
43152;SDS011;28756;49.064;9.290;2023-08-17T14:29:08;5.68;;;5.10;;
43152;SDS011;28756;49.064;9.290;2023-08-17T14:31:33;6.95;;;6.03;;
43152;SDS011;28756;49.064;9.290;2023-08-17T14:33:59;6.63;;;6.03;;
43152;SDS011;28756;49.064;9.290;2023-08-17T14:36:25;7.57;;;6.88;;
43152;SDS011;28756;49.064;9.290;2023-08-17T14:38:51;6.10;;;3.85;;
43152;SDS011;28756;49.064;9.290;2023-08-17T14:41:17;86.55;;;54.10;;
43152;SDS011;28756;49.064;9.290;2023-08-17T14:43:43;40.85;;;28.23;;
43152;SDS011;28756;49.064;9.290;2023-08-17T14:46:08;19.85;;;14.30;;
43152;SDS011;28756;49.064;9.290;2023-08-17T14:48:34;18.13;;;11.32;;
43152;SDS011;28756;49.064;9.290;2023-08-17T14:51:00;9.00;;;5.90;;
43152;SDS011;28756;49.064;9.290;2023-08-17T14:53:26;5.00;;;4.50;;
43152;SDS011;28756;49.064;9.290;2023-08-17T14:55:52;4.30;;;3.90;;
43152;SDS011;28756;49.064;9.290;2023-08-17T14:58:17;6.72;;;4.57;;
43152;SDS011;28756;49.064;9.290;2023-08-17T15:00:43;6.63;;;4.18;;